Time;durP1;ratioP1;P1;durP2;ratioP2;P2;SDS_P1;SDS_P2;PMS_P1;PMS_P2;Temp;Humidity;BMP_temperature;BMP_pressure;BME280_temperature;BME280_humidity;BME280_pressure;Samples;Min_cycle;Max_cycle;Signal;HPM_P1;HPM_P2
2022/08/21 00:02:49;;;;;;;7.35;6.65;;;;;;;;;;16894280;29;20560;-83
2022/08/21 00:11:10;;;;;;;8.30;7.18;;;;;;;;;;16893901;29;20268;-83
2022/08/21 00:19:31;;;;;;;7.57;6.88;;;;;;;;;;16894572;29;20174;-84
2022/08/21 00:27:52;;;;;;;8.30;6.93;;;;;;;;;;16893006;29;20237;-83
2022/08/21 00:36:13;;;;;;;9.32;7.18;;;;;;;;;;16892613;29;20189;-83
2022/08/21 00:44:34;;;;;;;8.80;7.13;;;;;;;;;;16891084;28;20251;-83
2022/08/21 00:52:54;;;;;;;8.23;6.95;;;;;;;;;;16890465;28;20173;-84
2022/08/21 01:01:15;;;;;;;8.13;7.25;;;;;;;;;;16891891;29;20162;-84
2022/08/21 01:09:36;;;;;;;8.55;7.75;;;;;;;;;;16890022;28;20224;-84
2022/08/21 01:17:56;;;;;;;8.73;7.63;;;;;;;;;;16890552;28;20176;-84
2022/08/21 01:26:18;;;;;;;8.40;7.60;;;;;;;;;;16890082;28;20264;-83
2022/08/21 01:34:39;;;;;;;8.77;7.97;;;;;;;;;;16888722;28;20178;-83
2022/08/21 01:43:00;;;;;;;8.93;7.85;;;;;;;;;;16889108;29;20311;-83
2022/08/21 01:51:20;;;;;;;8.68;7.88;;;;;;;;;;16887860;29;20239;-83
2022/08/21 01:59:41;;;;;;;9.20;8.13;;;;;;;;;;16888249;28;20237;-83
2022/08/21 02:08:01;;;;;;;9.23;8.00;;;;;;;;;;16885372;28;20213;-82
2022/08/21 02:16:22;;;;;;;8.27;7.53;;;;;;;;;;16887715;29;20182;-83
2022/08/21 02:24:42;;;;;;;8.73;7.47;;;;;;;;;;16887279;29;20201;-83
2022/08/21 02:33:02;;;;;;;9.50;8.40;;;;;;;;;;16886930;29;20204;-83
2022/08/21 02:41:23;;;;;;;9.35;7.85;;;;;;;;;;16886688;28;20197;-83
2022/08/21 02:49:43;;;;;;;9.48;8.57;;;;;;;;;;16886407;28;20595;-83
2022/08/21 02:58:04;;;;;;;9.40;8.43;;;;;;;;;;16886281;28;20229;-83
2022/08/21 03:06:25;;;;;;;11.30;9.10;;;;;;;;;;16885638;28;20279;-83
2022/08/21 03:14:45;;;;;;;9.77;8.77;;;;;;;;;;16885534;28;20182;-84
2022/08/21 03:23:06;;;;;;;9.90;8.90;;;;;;;;;;16897288;28;20269;-84
2022/08/21 03:31:30;;;;;;;9.55;8.65;;;;;;;;;;16896068;28;20247;-83
2022/08/21 03:39:51;;;;;;;9.90;8.88;;;;;;;;;;16895535;28;20208;-83
2022/08/21 03:48:11;;;;;;;11.20;9.15;;;;;;;;;;16894975;28;20591;-83
2022/08/21 03:56:31;;;;;;;10.15;9.07;;;;;;;;;;16894760;29;20229;-83
2022/08/21 04:04:52;;;;;;;12.32;9.13;;;;;;;;;;16893329;29;20251;-83
2022/08/21 04:13:12;;;;;;;10.85;9.13;;;;;;;;;;16893909;28;20200;-83
2022/08/21 04:21:32;;;;;;;10.60;9.50;;;;;;;;;;16892480;28;20652;-83
2022/08/21 04:29:53;;;;;;;15.23;13.70;;;;;;;;;;16893583;28;20262;-83
2022/08/21 04:38:13;;;;;;;9.90;9.00;;;;;;;;;;16892593;28;20215;-84
2022/08/21 04:46:34;;;;;;;12.63;8.65;;;;;;;;;;16892031;28;20332;-84
2022/08/21 04:54:54;;;;;;;10.10;8.90;;;;;;;;;;16892054;28;20284;-84
2022/08/21 05:03:16;;;;;;;9.80;8.90;;;;;;;;;;16891337;28;20421;-84
2022/08/21 05:11:37;;;;;;;10.00;9.10;;;;;;;;;;16889804;28;20251;-84
2022/08/21 05:19:57;;;;;;;9.73;8.73;;;;;;;;;;16891640;28;20173;-84
2022/08/21 05:28:17;;;;;;;9.38;8.48;;;;;;;;;;16890115;28;20973;-84
2022/08/21 05:36:38;;;;;;;9.07;8.27;;;;;;;;;;16889551;28;20610;-84
2022/08/21 05:44:58;;;;;;;8.63;7.90;;;;;;;;;;16887608;28;20209;-84
2022/08/21 05:53:19;;;;;;;21.35;19.55;;;;;;;;;;16889777;28;20233;-84
2022/08/21 06:01:40;;;;;;;8.35;7.75;;;;;;;;;;16887690;29;20195;-84
2022/08/21 06:10:00;;;;;;;9.13;8.40;;;;;;;;;;16887080;28;20209;-85
2022/08/21 06:18:21;;;;;;;8.88;8.18;;;;;;;;;;16886850;28;20565;-85
2022/08/21 06:26:41;;;;;;;7.78;7.18;;;;;;;;;;16888269;28;20209;-85
2022/08/21 06:35:02;;;;;;;8.45;7.68;;;;;;;;;;16887093;28;20185;-85
2022/08/21 06:43:22;;;;;;;8.10;7.50;;;;;;;;;;16885572;28;20215;-85
2022/08/21 06:51:42;;;;;;;7.22;6.50;;;;;;;;;;16882937;28;20695;-85
2022/08/21 07:00:04;;;;;;;7.82;7.13;;;;;;;;;;16884414;28;20315;-85
2022/08/21 07:08:25;;;;;;;8.18;7.47;;;;;;;;;;16885479;29;20205;-83
2022/08/21 07:16:46;;;;;;;7.28;6.68;;;;;;;;;;16884011;29;20188;-82
2022/08/21 07:25:07;;;;;;;6.88;6.38;;;;;;;;;;16885467;29;20288;-82
2022/08/21 07:33:28;;;;;;;8.00;7.30;;;;;;;;;;16884245;29;20185;-83
2022/08/21 07:41:49;;;;;;;7.63;6.93;;;;;;;;;;16883900;29;20209;-82
2022/08/21 07:50:11;;;;;;;7.28;6.60;;;;;;;;;;16870071;28;20599;-82
2022/08/21 07:58:31;;;;;;;7.20;6.35;;;;;;;;;;16880203;28;20271;-84
2022/08/21 08:06:52;;;;;;;8.30;6.70;;;;;;;;;;16889019;29;20201;-82
2022/08/21 08:15:16;;;;;;;9.20;7.13;;;;;;;;;;16892712;28;20271;-82
2022/08/21 08:23:36;;;;;;;9.70;6.90;;;;;;;;;;16891917;29;20200;-82
2022/08/21 08:31:57;;;;;;;7.10;6.57;;;;;;;;;;16893113;29;20243;-81
2022/08/21 08:40:22;;;;;;;19.40;18.10;;;;;;;;;;16892188;29;20209;-81
2022/08/21 08:49:03;;;;;;;7.13;6.10;;;;;;;;;;16891599;28;20259;-83
2022/08/21 08:57:24;;;;;;;7.05;6.07;;;;;;;;;;16892095;29;20716;-82
2022/08/21 09:05:53;;;;;;;5.85;5.35;;;;;;;;;;16890230;29;20212;-82
2022/08/21 09:14:37;;;;;;;6.68;6.18;;;;;;;;;;16889516;28;20190;-82
2022/08/21 09:23:20;;;;;;;5.70;5.28;;;;;;;;;;16892011;28;20201;-82
2022/08/21 09:31:41;;;;;;;6.07;5.57;;;;;;;;;;16887632;29;20233;-81
2022/08/21 09:40:02;;;;;;;6.65;5.90;;;;;;;;;;16883738;29;20201;-82
2022/08/21 09:48:24;;;;;;;6.30;5.68;;;;;;;;;;16882090;28;20315;-82
2022/08/21 10:05:36;;;;;;;6.07;5.68;;;;;;;;;;16886803;29;20205;-82
2022/08/21 10:14:06;;;;;;;6.40;5.80;;;;;;;;;;16885666;29;20216;-82
2022/08/21 10:22:46;;;;;;;6.20;5.60;;;;;;;;;;16886934;29;20185;-81
2022/08/21 10:31:09;;;;;;;5.50;5.10;;;;;;;;;;16884952;29;20205;-81
2022/08/21 10:39:37;;;;;;;5.93;5.25;;;;;;;;;;16882956;29;20204;-82
2022/08/21 10:48:02;;;;;;;6.00;5.45;;;;;;;;;;16879396;28;20215;-82
2022/08/21 10:56:24;;;;;;;5.53;5.00;;;;;;;;;;16879522;28;20236;-82
2022/08/21 11:04:52;;;;;;;5.78;5.35;;;;;;;;;;16883733;29;20231;-82
2022/08/21 11:13:19;;;;;;;5.78;5.28;;;;;;;;;;16884084;29;20169;-82
2022/08/21 11:21:44;;;;;;;5.43;5.03;;;;;;;;;;16883685;28;20177;-82
2022/08/21 11:30:05;;;;;;;6.47;5.05;;;;;;;;;;16883119;28;20209;-82
2022/08/21 11:38:28;;;;;;;5.50;5.00;;;;;;;;;;16886822;28;20212;-83
2022/08/21 11:46:51;;;;;;;5.10;4.70;;;;;;;;;;16893730;29;20197;-84
2022/08/21 11:55:17;;;;;;;5.18;4.75;;;;;;;;;;16894094;28;20745;-82
2022/08/21 12:03:40;;;;;;;8.02;4.70;;;;;;;;;;16893562;28;20170;-82
2022/08/21 12:12:03;;;;;;;4.85;4.32;;;;;;;;;;16892325;28;20177;-81
2022/08/21 12:20:23;;;;;;;5.18;4.78;;;;;;;;;;16891827;28;20188;-82
2022/08/21 12:28:43;;;;;;;5.32;4.82;;;;;;;;;;16890894;28;20251;-82
2022/08/21 12:37:11;;;;;;;5.53;5.05;;;;;;;;;;16889988;28;20224;-81
2022/08/21 12:45:33;;;;;;;5.32;4.93;;;;;;;;;;16891248;29;20209;-81
2022/08/21 12:53:58;;;;;;;5.28;4.88;;;;;;;;;;16889865;28;20244;-82
2022/08/21 13:02:20;;;;;;;5.13;4.55;;;;;;;;;;16885098;29;20169;-82
2022/08/21 13:10:40;;;;;;;5.55;4.82;;;;;;;;;;16890450;28;20209;-82
2022/08/21 13:19:05;;;;;;;5.35;4.85;;;;;;;;;;16890559;28;20170;-82
2022/08/21 13:27:27;;;;;;;5.47;5.00;;;;;;;;;;16887932;29;20220;-82
2022/08/21 13:35:50;;;;;;;5.63;5.13;;;;;;;;;;16887992;29;20525;-81
2022/08/21 13:44:13;;;;;;;6.47;5.85;;;;;;;;;;16887772;28;20215;-81
2022/08/21 13:52:44;;;;;;;6.45;5.93;;;;;;;;;;16887306;29;20209;-81
2022/08/21 14:01:05;;;;;;;6.38;5.70;;;;;;;;;;16886899;29;20182;-81
2022/08/21 14:09:33;;;;;;;6.07;5.57;;;;;;;;;;16887624;28;20235;-81
2022/08/21 14:17:54;;;;;;;5.93;5.50;;;;;;;;;;16887869;29;20617;-81
2022/08/21 14:26:16;;;;;;;6.07;5.50;;;;;;;;;;16886025;28;20205;-81
2022/08/21 14:34:37;;;;;;;6.53;5.47;;;;;;;;;;16884207;28;20165;-81
2022/08/21 14:42:58;;;;;;;5.78;5.38;;;;;;;;;;16884122;28;20232;-81
2022/08/21 14:51:18;;;;;;;5.32;4.93;;;;;;;;;;16883566;28;20213;-80
2022/08/21 14:59:38;;;;;;;5.38;4.97;;;;;;;;;;16885291;28;20229;-81
2022/08/21 15:07:59;;;;;;;5.32;4.93;;;;;;;;;;16884442;29;20275;-81
2022/08/21 15:16:19;;;;;;;5.38;4.88;;;;;;;;;;16893505;28;20185;-81
2022/08/21 15:24:39;;;;;;;5.40;5.00;;;;;;;;;;16893448;29;20209;-80
2022/08/21 15:33:00;;;;;;;6.47;5.47;;;;;;;;;;16895056;29;20199;-80
2022/08/21 15:41:20;;;;;;;6.00;5.60;;;;;;;;;;16895470;29;20201;-81
2022/08/21 15:49:44;;;;;;;5.90;5.28;;;;;;;;;;16893252;28;20213;-81
2022/08/21 15:58:05;;;;;;;5.60;4.88;;;;;;;;;;16893082;28;20256;-81
2022/08/21 16:06:25;;;;;;;5.32;4.82;;;;;;;;;;16891853;29;20271;-81
2022/08/21 16:14:45;;;;;;;5.43;4.60;;;;;;;;;;16892846;28;20960;-81
2022/08/21 16:23:06;;;;;;;6.57;6.07;;;;;;;;;;16891307;28;20684;-81
2022/08/21 16:31:26;;;;;;;5.85;5.35;;;;;;;;;;16892373;28;20224;-81
2022/08/21 16:39:47;;;;;;;6.07;5.35;;;;;;;;;;16891859;28;20197;-81
2022/08/21 16:48:08;;;;;;;5.93;5.38;;;;;;;;;;16888359;28;20347;-83
2022/08/21 16:56:29;;;;;;;5.88;5.43;;;;;;;;;;16891155;28;20502;-83
2022/08/21 17:04:50;;;;;;;6.50;5.97;;;;;;;;;;16889906;29;20611;-83
2022/08/21 17:13:11;;;;;;;6.30;5.70;;;;;;;;;;16890645;29;20177;-82
2022/08/21 17:21:31;;;;;;;6.10;5.50;;;;;;;;;;16889617;29;20208;-83
2022/08/21 17:29:53;;;;;;;4.85;4.53;;;;;;;;;;16887935;29;20220;-83
2022/08/21 17:38:14;;;;;;;5.20;4.70;;;;;;;;;;16886238;29;20208;-83
2022/08/21 17:46:37;;;;;;;7.15;6.45;;;;;;;;;;16885499;29;20197;-83
2022/08/21 17:54:58;;;;;;;6.32;5.72;;;;;;;;;;16886801;28;20247;-83
2022/08/21 18:03:19;;;;;;;7.30;5.80;;;;;;;;;;16886234;28;20590;-83
2022/08/21 18:11:40;;;;;;;6.63;5.82;;;;;;;;;;16887386;29;20245;-83
2022/08/21 18:20:01;;;;;;;6.22;5.65;;;;;;;;;;16886154;29;20213;-82
2022/08/21 18:28:22;;;;;;;8.52;6.18;;;;;;;;;;16885880;28;20213;-83
2022/08/21 18:36:42;;;;;;;8.50;6.45;;;;;;;;;;16882216;29;20454;-82
2022/08/21 18:45:05;;;;;;;6.72;5.93;;;;;;;;;;16883978;29;20560;-82
2022/08/21 18:53:25;;;;;;;10.10;7.28;;;;;;;;;;16883979;28;20276;-82
2022/08/21 19:01:47;;;;;;;7.28;6.47;;;;;;;;;;16884331;29;20568;-82
2022/08/21 19:10:09;;;;;;;7.20;6.03;;;;;;;;;;16882807;28;20205;-82
2022/08/21 19:18:31;;;;;;;7.50;6.78;;;;;;;;;;16883819;29;20313;-82
2022/08/21 19:26:52;;;;;;;7.57;6.85;;;;;;;;;;16883581;29;20727;-82
2022/08/21 19:35:14;;;;;;;9.15;6.93;;;;;;;;;;16884507;29;20189;-82
2022/08/21 19:43:38;;;;;;;8.13;6.50;;;;;;;;;;16883701;29;20255;-82
2022/08/21 19:52:00;;;;;;;7.90;7.20;;;;;;;;;;16882926;28;20188;-82
2022/08/21 20:00:21;;;;;;;10.27;7.18;;;;;;;;;;16887247;28;20241;-82
2022/08/21 20:08:41;;;;;;;8.05;7.28;;;;;;;;;;16894278;28;20687;-82
2022/08/21 20:17:07;;;;;;;7.63;6.88;;;;;;;;;;16893949;28;20189;-82
2022/08/21 20:25:28;;;;;;;7.90;7.10;;;;;;;;;;16891943;28;20664;-82
2022/08/21 20:33:49;;;;;;;9.73;7.40;;;;;;;;;;16891705;28;20178;-82
2022/08/21 20:42:10;;;;;;;7.72;6.88;;;;;;;;;;16892387;28;20540;-82
2022/08/21 20:50:32;;;;;;;9.15;7.82;;;;;;;;;;16892182;28;20224;-82
2022/08/21 20:59:08;;;;;;;8.43;7.57;;;;;;;;;;16892947;28;20608;-82
2022/08/21 21:07:33;;;;;;;8.32;7.00;;;;;;;;;;16891256;29;20304;-82
2022/08/21 21:15:56;;;;;;;8.60;7.18;;;;;;;;;;16891993;29;20176;-82
2022/08/21 21:24:19;;;;;;;9.43;7.85;;;;;;;;;;16889165;29;20570;-82
2022/08/21 21:32:39;;;;;;;8.60;7.50;;;;;;;;;;16889099;29;20301;-82
2022/08/21 21:41:15;;;;;;;8.60;7.70;;;;;;;;;;16889453;29;20312;-82
2022/08/21 21:49:48;;;;;;;8.48;7.78;;;;;;;;;;16888183;28;20209;-82
2022/08/21 21:58:09;;;;;;;8.85;8.05;;;;;;;;;;16888201;29;20243;-82
2022/08/21 22:06:34;;;;;;;8.75;7.88;;;;;;;;;;16887999;29;20205;-82
2022/08/21 22:14:55;;;;;;;8.98;7.65;;;;;;;;;;16882091;29;20173;-81
2022/08/21 22:23:18;;;;;;;10.50;8.38;;;;;;;;;;16886726;28;20177;-81
2022/08/21 22:31:39;;;;;;;8.50;7.78;;;;;;;;;;16887257;29;20940;-81
2022/08/21 22:39:59;;;;;;;8.77;7.93;;;;;;;;;;16886742;29;20648;-81
2022/08/21 22:48:21;;;;;;;8.90;8.10;;;;;;;;;;16885551;29;20300;-81
2022/08/21 22:56:46;;;;;;;8.23;7.53;;;;;;;;;;16884870;28;20261;-81
2022/08/21 23:05:30;;;;;;;9.18;8.10;;;;;;;;;;16886423;29;20196;-81
2022/08/21 23:13:51;;;;;;;8.48;7.75;;;;;;;;;;16886755;29;20201;-81
2022/08/21 23:22:26;;;;;;;10.10;8.18;;;;;;;;;;16885206;29;20272;-81
2022/08/21 23:31:05;;;;;;;9.45;7.90;;;;;;;;;;16885316;29;20213;-81
2022/08/21 23:39:38;;;;;;;9.52;8.07;;;;;;;;;;16896125;29;20201;-81
2022/08/21 23:47:58;;;;;;;8.52;7.82;;;;;;;;;;16895612;29;20201;-81
2022/08/21 23:56:25;;;;;;;9.00;8.20;;;;;;;;;;16894272;28;20283;-81
